Lake Grove, New York
Current Conditions -  °F | °C
As of 12:56 PM on Saturday 20 Dec 2014 (Local Time) from KISP Reporting Station
Overcast Overcast  
Wind Chill: 26°   Ceiling: 2500
Heat Index: 32°   Visibility: 10mi
Dew Point: 21°   Wind: 7mph
Humidity: 64%   Direction: 330°NNW
Pressure: 30.25"   Gusts: NA
Location:  40.85°N, 73.11°W
Report Text: KISP 201756Z 33006KT 10SM OVC025 00/M06 A3025 RMK AO2 SLP243 T00001061 10006 20000 58007
Loading
Personal Weather Stations






























Interactive Weather Map New forecast layout! Learn more

10-Day Weather Forecast

Advertisements
Track Severe Weather on mobile